sensor_id;sensor_type;location;lat;lon;timestamp;temperature;humidity
3408;DHT22;1717;50.240;8.406;2023-06-22T00:00:48;24.80;69.80
3408;DHT22;1717;50.240;8.406;2023-06-22T00:03:15;24.60;69.70
3408;DHT22;1717;50.240;8.406;2023-06-22T00:05:43;24.80;70.00
3408;DHT22;1717;50.240;8.406;2023-06-22T00:08:10;24.60;70.90
3408;DHT22;1717;50.240;8.406;2023-06-22T00:10:37;24.50;72.70
3408;DHT22;1717;50.240;8.406;2023-06-22T00:13:04;24.60;72.10
3408;DHT22;1717;50.240;8.406;2023-06-22T00:15:31;24.60;72.00
3408;DHT22;1717;50.240;8.406;2023-06-22T00:17:58;24.60;71.90
3408;DHT22;1717;50.240;8.406;2023-06-22T00:20:26;24.60;71.40
3408;DHT22;1717;50.240;8.406;2023-06-22T00:22:57;24.60;71.60
3408;DHT22;1717;50.240;8.406;2023-06-22T00:25:24;24.60;71.90
3408;DHT22;1717;50.240;8.406;2023-06-22T00:27:51;24.60;73.30
3408;DHT22;1717;50.240;8.406;2023-06-22T00:30:18;24.70;73.30
3408;DHT22;1717;50.240;8.406;2023-06-22T00:32:45;24.70;72.40
3408;DHT22;1717;50.240;8.406;2023-06-22T00:35:12;24.80;73.20
3408;DHT22;1717;50.240;8.406;2023-06-22T00:37:39;24.80;73.00
3408;DHT22;1717;50.240;8.406;2023-06-22T00:40:10;24.80;72.70
3408;DHT22;1717;50.240;8.406;2023-06-22T00:42:37;24.90;72.10
3408;DHT22;1717;50.240;8.406;2023-06-22T00:45:05;24.80;72.00
3408;DHT22;1717;50.240;8.406;2023-06-22T00:47:34;24.80;72.50
3408;DHT22;1717;50.240;8.406;2023-06-22T00:50:02;24.80;73.30
3408;DHT22;1717;50.240;8.406;2023-06-22T00:52:29;24.80;73.30
3408;DHT22;1717;50.240;8.406;2023-06-22T00:54:59;24.80;73.90
3408;DHT22;1717;50.240;8.406;2023-06-22T00:57:30;24.80;74.10
3408;DHT22;1717;50.240;8.406;2023-06-22T00:59:57;24.80;74.70
3408;DHT22;1717;50.240;8.406;2023-06-22T01:02:24;24.70;75.20
3408;DHT22;1717;50.240;8.406;2023-06-22T01:04:50;24.70;76.00
3408;DHT22;1717;50.240;8.406;2023-06-22T01:07:25;24.70;76.20
3408;DHT22;1717;50.240;8.406;2023-06-22T01:10:03;24.60;75.60
3408;DHT22;1717;50.240;8.406;2023-06-22T01:12:41;24.60;76.30
3408;DHT22;1717;50.240;8.406;2023-06-22T01:15:13;24.60;76.90
3408;DHT22;1717;50.240;8.406;2023-06-22T01:17:42;24.60;77.90
3408;DHT22;1717;50.240;8.406;2023-06-22T01:20:10;24.60;79.70
3408;DHT22;1717;50.240;8.406;2023-06-22T01:22:50;24.50;80.10
3408;DHT22;1717;50.240;8.406;2023-06-22T01:25:28;24.40;81.60
3408;DHT22;1717;50.240;8.406;2023-06-22T01:28:05;24.40;82.70
3408;DHT22;1717;50.240;8.406;2023-06-22T01:30:43;24.40;83.40
3408;DHT22;1717;50.240;8.406;2023-06-22T01:33:13;24.20;84.20
3408;DHT22;1717;50.240;8.406;2023-06-22T01:35:41;24.10;85.40
3408;DHT22;1717;50.240;8.406;2023-06-22T01:38:09;24.10;88.40
3408;DHT22;1717;50.240;8.406;2023-06-22T01:40:36;24.00;89.00
3408;DHT22;1717;50.240;8.406;2023-06-22T01:43:04;24.00;89.70
3408;DHT22;1717;50.240;8.406;2023-06-22T01:45:31;23.90;90.00
3408;DHT22;1717;50.240;8.406;2023-06-22T01:48:00;24.00;90.20
3408;DHT22;1717;50.240;8.406;2023-06-22T01:50:27;24.00;90.00
3408;DHT22;1717;50.240;8.406;2023-06-22T01:52:54;24.00;90.00
3408;DHT22;1717;50.240;8.406;2023-06-22T01:55:21;24.00;89.90
3408;DHT22;1717;50.240;8.406;2023-06-22T01:57:47;24.00;90.70
3408;DHT22;1717;50.240;8.406;2023-06-22T02:00:18;24.00;90.70
3408;DHT22;1717;50.240;8.406;2023-06-22T02:02:52;24.00;90.90
3408;DHT22;1717;50.240;8.406;2023-06-22T02:05:24;24.00;91.30
3408;DHT22;1717;50.240;8.406;2023-06-22T02:07:58;23.90;91.50
3408;DHT22;1717;50.240;8.406;2023-06-22T02:10:27;24.00;91.90
3408;DHT22;1717;50.240;8.406;2023-06-22T02:12:55;23.90;92.30
3408;DHT22;1717;50.240;8.406;2023-06-22T02:15:23;23.80;93.10
3408;DHT22;1717;50.240;8.406;2023-06-22T02:17:51;23.70;93.90
3408;DHT22;1717;50.240;8.406;2023-06-22T02:20:18;23.80;94.30
3408;DHT22;1717;50.240;8.406;2023-06-22T02:22:47;23.60;94.60
3408;DHT22;1717;50.240;8.406;2023-06-22T02:25:14;23.60;95.00
3408;DHT22;1717;50.240;8.406;2023-06-22T02:27:41;23.60;95.20
3408;DHT22;1717;50.240;8.406;2023-06-22T02:30:09;23.70;95.70
3408;DHT22;1717;50.240;8.406;2023-06-22T02:32:36;23.60;95.50
3408;DHT22;1717;50.240;8.406;2023-06-22T02:35:03;23.70;95.60
3408;DHT22;1717;50.240;8.406;2023-06-22T02:37:30;23.70;95.40
3408;DHT22;1717;50.240;8.406;2023-06-22T02:39:58;23.70;95.40
3408;DHT22;1717;50.240;8.406;2023-06-22T02:42:25;23.60;95.40
3408;DHT22;1717;50.240;8.406;2023-06-22T02:44:52;23.60;95.50
3408;DHT22;1717;50.240;8.406;2023-06-22T02:47:19;23.60;96.60
3408;DHT22;1717;50.240;8.406;2023-06-22T02:49:46;23.60;96.50
3408;DHT22;1717;50.240;8.406;2023-06-22T02:52:12;23.60;96.50
3408;DHT22;1717;50.240;8.406;2023-06-22T02:54:39;23.60;96.60
3408;DHT22;1717;50.240;8.406;2023-06-22T02:57:08;23.60;96.90
3408;DHT22;1717;50.240;8.406;2023-06-22T02:59:38;23.50;97.10
3408;DHT22;1717;50.240;8.406;2023-06-22T03:02:06;23.50;97.10
3408;DHT22;1717;50.240;8.406;2023-06-22T03:04:33;23.50;97.20
3408;DHT22;1717;50.240;8.406;2023-06-22T03:07:00;23.50;97.00
3408;DHT22;1717;50.240;8.406;2023-06-22T03:09:27;23.50;97.30
3408;DHT22;1717;50.240;8.406;2023-06-22T03:11:54;23.40;97.10
3408;DHT22;1717;50.240;8.406;2023-06-22T03:14:23;23.30;97.50
3408;DHT22;1717;50.240;8.406;2023-06-22T03:16:49;23.20;97.80
3408;DHT22;1717;50.240;8.406;2023-06-22T03:19:16;23.10;98.20
3408;DHT22;1717;50.240;8.406;2023-06-22T03:21:43;23.00;98.60
3408;DHT22;1717;50.240;8.406;2023-06-22T03:24:10;23.00;98.90
3408;DHT22;1717;50.240;8.406;2023-06-22T03:26:37;22.90;99.10
3408;DHT22;1717;50.240;8.406;2023-06-22T03:29:03;22.90;99.20
3408;DHT22;1717;50.240;8.406;2023-06-22T03:31:32;22.90;99.60
3408;DHT22;1717;50.240;8.406;2023-06-22T03:33:58;22.90;99.30
3408;DHT22;1717;50.240;8.406;2023-06-22T03:36:25;22.90;99.30
3408;DHT22;1717;50.240;8.406;2023-06-22T03:38:52;22.90;99.40
3408;DHT22;1717;50.240;8.406;2023-06-22T03:41:19;22.90;99.50
3408;DHT22;1717;50.240;8.406;2023-06-22T03:43:46;22.90;99.50
3408;DHT22;1717;50.240;8.406;2023-06-22T03:46:13;22.90;99.60
3408;DHT22;1717;50.240;8.406;2023-06-22T03:48:41;22.90;99.60
3408;DHT22;1717;50.240;8.406;2023-06-22T03:51:08;22.90;99.70
3408;DHT22;1717;50.240;8.406;2023-06-22T03:53:35;22.90;99.80
3408;DHT22;1717;50.240;8.406;2023-06-22T03:56:02;22.90;99.80
3408;DHT22;1717;50.240;8.406;2023-06-22T03:58:29;22.90;99.80
3408;DHT22;1717;50.240;8.406;2023-06-22T04:00:58;22.90;99.90
3408;DHT22;1717;50.240;8.406;2023-06-22T04:03:25;22.90;99.90
3408;DHT22;1717;50.240;8.406;2023-06-22T04:05:53;22.90;99.90
3408;DHT22;1717;50.240;8.406;2023-06-22T04:08:20;22.90;99.90
3408;DHT22;1717;50.240;8.406;2023-06-22T04:10:47;22.90;99.90
3408;DHT22;1717;50.240;8.406;2023-06-22T04:13:14;23.00;99.90
3408;DHT22;1717;50.240;8.406;2023-06-22T04:15:41;23.00;99.90
3408;DHT22;1717;50.240;8.406;2023-06-22T04:18:07;23.00;99.90
3408;DHT22;1717;50.240;8.406;2023-06-22T04:20:34;23.00;99.90
3408;DHT22;1717;50.240;8.406;2023-06-22T04:23:03;23.00;99.90
3408;DHT22;1717;50.240;8.406;2023-06-22T04:25:29;23.10;99.90
3408;DHT22;1717;50.240;8.406;2023-06-22T04:27:56;23.10;99.90
3408;DHT22;1717;50.240;8.406;2023-06-22T04:30:23;23.10;99.90
3408;DHT22;1717;50.240;8.406;2023-06-22T04:32:50;23.10;99.90
3408;DHT22;1717;50.240;8.406;2023-06-22T04:35:21;23.20;99.90
3408;DHT22;1717;50.240;8.406;2023-06-22T04:37:49;23.20;99.90
3408;DHT22;1717;50.240;8.406;2023-06-22T04:40:21;23.20;99.90
3408;DHT22;1717;50.240;8.406;2023-06-22T04:42:48;23.30;99.90
3408;DHT22;1717;50.240;8.406;2023-06-22T04:45:19;23.30;99.70
3408;DHT22;1717;50.240;8.406;2023-06-22T04:47:46;23.30;99.70
3408;DHT22;1717;50.240;8.406;2023-06-22T04:50:13;23.30;99.80
3408;DHT22;1717;50.240;8.406;2023-06-22T04:52:40;23.30;99.90
3408;DHT22;1717;50.240;8.406;2023-06-22T04:55:08;23.30;99.80
3408;DHT22;1717;50.240;8.406;2023-06-22T04:57:36;23.40;99.90
3408;DHT22;1717;50.240;8.406;2023-06-22T05:00:06;23.40;99.90
3408;DHT22;1717;50.240;8.406;2023-06-22T05:02:43;23.40;99.80
3408;DHT22;1717;50.240;8.406;2023-06-22T05:05:10;23.40;99.90
3408;DHT22;1717;50.240;8.406;2023-06-22T05:07:42;23.40;99.90
3408;DHT22;1717;50.240;8.406;2023-06-22T05:10:10;23.30;99.90
3408;DHT22;1717;50.240;8.406;2023-06-22T05:12:41;23.40;99.90
3408;DHT22;1717;50.240;8.406;2023-06-22T05:15:08;23.30;99.90
3408;DHT22;1717;50.240;8.406;2023-06-22T05:17:35;23.30;99.90
3408;DHT22;1717;50.240;8.406;2023-06-22T05:20:03;23.30;99.90
3408;DHT22;1717;50.240;8.406;2023-06-22T05:22:31;23.30;99.90
3408;DHT22;1717;50.240;8.406;2023-06-22T05:24:58;23.40;99.90
3408;DHT22;1717;50.240;8.406;2023-06-22T05:27:25;23.40;99.90
3408;DHT22;1717;50.240;8.406;2023-06-22T05:29:53;23.40;99.90
3408;DHT22;1717;50.240;8.406;2023-06-22T05:32:20;23.50;99.90
3408;DHT22;1717;50.240;8.406;2023-06-22T05:34:47;23.50;99.90
3408;DHT22;1717;50.240;8.406;2023-06-22T05:37:14;23.50;99.90
3408;DHT22;1717;50.240;8.406;2023-06-22T05:39:41;23.60;99.90
3408;DHT22;1717;50.240;8.406;2023-06-22T05:42:08;23.60;99.90
3408;DHT22;1717;50.240;8.406;2023-06-22T05:44:34;23.60;99.90
3408;DHT22;1717;50.240;8.406;2023-06-22T05:47:04;23.70;99.90
3408;DHT22;1717;50.240;8.406;2023-06-22T05:49:31;23.70;99.90
3408;DHT22;1717;50.240;8.406;2023-06-22T05:51:58;23.80;99.90
3408;DHT22;1717;50.240;8.406;2023-06-22T05:54:25;23.80;99.90
3408;DHT22;1717;50.240;8.406;2023-06-22T05:56:52;23.90;99.90
3408;DHT22;1717;50.240;8.406;2023-06-22T05:59:18;23.90;99.90
3408;DHT22;1717;50.240;8.406;2023-06-22T06:01:45;24.00;99.90
3408;DHT22;1717;50.240;8.406;2023-06-22T06:04:16;24.10;99.90
3408;DHT22;1717;50.240;8.406;2023-06-22T06:06:43;24.30;99.90
3408;DHT22;1717;50.240;8.406;2023-06-22T06:09:10;24.30;99.90
3408;DHT22;1717;50.240;8.406;2023-06-22T06:11:39;24.40;99.90
3408;DHT22;1717;50.240;8.406;2023-06-22T06:14:06;24.50;99.70
3408;DHT22;1717;50.240;8.406;2023-06-22T06:16:32;24.60;99.80
3408;DHT22;1717;50.240;8.406;2023-06-22T06:18:59;24.60;99.40
3408;DHT22;1717;50.240;8.406;2023-06-22T06:21:27;24.80;99.30
3408;DHT22;1717;50.240;8.406;2023-06-22T06:23:54;24.90;99.30
3408;DHT22;1717;50.240;8.406;2023-06-22T06:26:21;24.90;99.00
3408;DHT22;1717;50.240;8.406;2023-06-22T06:28:53;25.10;99.00
3408;DHT22;1717;50.240;8.406;2023-06-22T06:31:20;25.10;98.70
3408;DHT22;1717;50.240;8.406;2023-06-22T06:33:48;25.10;99.00
3408;DHT22;1717;50.240;8.406;2023-06-22T06:36:15;25.20;98.70
3408;DHT22;1717;50.240;8.406;2023-06-22T06:38:43;25.20;98.50
3408;DHT22;1717;50.240;8.406;2023-06-22T06:41:12;25.20;98.80
3408;DHT22;1717;50.240;8.406;2023-06-22T06:43:39;25.20;98.50
3408;DHT22;1717;50.240;8.406;2023-06-22T06:46:07;25.30;98.70
3408;DHT22;1717;50.240;8.406;2023-06-22T06:48:34;25.30;98.50
3408;DHT22;1717;50.240;8.406;2023-06-22T06:51:01;25.50;98.40
3408;DHT22;1717;50.240;8.406;2023-06-22T06:53:28;25.50;98.60
3408;DHT22;1717;50.240;8.406;2023-06-22T06:55:57;25.60;98.60
3408;DHT22;1717;50.240;8.406;2023-06-22T06:58:23;25.70;98.10
3408;DHT22;1717;50.240;8.406;2023-06-22T07:00:50;25.70;98.10
3408;DHT22;1717;50.240;8.406;2023-06-22T07:03:17;25.80;97.40
3408;DHT22;1717;50.240;8.406;2023-06-22T07:05:44;25.80;97.20
3408;DHT22;1717;50.240;8.406;2023-06-22T07:08:11;25.90;96.70
3408;DHT22;1717;50.240;8.406;2023-06-22T07:10:38;26.00;96.60
3408;DHT22;1717;50.240;8.406;2023-06-22T07:13:06;26.00;96.30
3408;DHT22;1717;50.240;8.406;2023-06-22T07:15:33;26.10;96.50
3408;DHT22;1717;50.240;8.406;2023-06-22T07:18:00;26.10;96.00
3408;DHT22;1717;50.240;8.406;2023-06-22T07:20:26;26.20;95.50
3408;DHT22;1717;50.240;8.406;2023-06-22T07:22:53;26.30;95.40
3408;DHT22;1717;50.240;8.406;2023-06-22T07:25:20;26.30;95.30
3408;DHT22;1717;50.240;8.406;2023-06-22T07:27:58;26.40;95.10
3408;DHT22;1717;50.240;8.406;2023-06-22T07:30:27;26.50;95.50
3408;DHT22;1717;50.240;8.406;2023-06-22T07:32:54;26.60;94.80
3408;DHT22;1717;50.240;8.406;2023-06-22T07:35:21;26.70;94.60
3408;DHT22;1717;50.240;8.406;2023-06-22T07:37:47;26.80;94.20
3408;DHT22;1717;50.240;8.406;2023-06-22T07:40:14;26.80;93.90
3408;DHT22;1717;50.240;8.406;2023-06-22T07:42:41;26.90;93.70
3408;DHT22;1717;50.240;8.406;2023-06-22T07:45:08;27.00;93.20
3408;DHT22;1717;50.240;8.406;2023-06-22T07:47:37;27.10;92.60
3408;DHT22;1717;50.240;8.406;2023-06-22T07:50:04;27.10;92.40
3408;DHT22;1717;50.240;8.406;2023-06-22T07:52:32;27.20;92.50
3408;DHT22;1717;50.240;8.406;2023-06-22T07:54:58;27.30;91.70
3408;DHT22;1717;50.240;8.406;2023-06-22T07:57:25;27.40;91.40
3408;DHT22;1717;50.240;8.406;2023-06-22T07:59:58;27.40;90.90
3408;DHT22;1717;50.240;8.406;2023-06-22T08:02:25;27.50;90.70
3408;DHT22;1717;50.240;8.406;2023-06-22T08:04:53;27.60;90.30
3408;DHT22;1717;50.240;8.406;2023-06-22T08:07:20;27.70;90.00
3408;DHT22;1717;50.240;8.406;2023-06-22T08:09:48;27.80;89.60
3408;DHT22;1717;50.240;8.406;2023-06-22T08:12:15;27.90;88.80
3408;DHT22;1717;50.240;8.406;2023-06-22T08:14:42;27.90;87.80
3408;DHT22;1717;50.240;8.406;2023-06-22T08:17:09;28.00;87.10
3408;DHT22;1717;50.240;8.406;2023-06-22T08:19:37;28.10;86.70
3408;DHT22;1717;50.240;8.406;2023-06-22T08:22:06;28.10;86.10
3408;DHT22;1717;50.240;8.406;2023-06-22T08:24:32;28.20;85.40
3408;DHT22;1717;50.240;8.406;2023-06-22T08:26:59;28.20;84.70
3408;DHT22;1717;50.240;8.406;2023-06-22T08:29:26;28.30;84.20
3408;DHT22;1717;50.240;8.406;2023-06-22T08:31:53;28.40;83.80
3408;DHT22;1717;50.240;8.406;2023-06-22T08:34:20;28.50;83.50
3408;DHT22;1717;50.240;8.406;2023-06-22T08:36:47;28.50;82.90
3408;DHT22;1717;50.240;8.406;2023-06-22T08:39:18;28.60;82.80
3408;DHT22;1717;50.240;8.406;2023-06-22T08:41:45;28.70;82.20
3408;DHT22;1717;50.240;8.406;2023-06-22T08:44:12;28.70;81.60
3408;DHT22;1717;50.240;8.406;2023-06-22T08:46:39;28.80;81.30
3408;DHT22;1717;50.240;8.406;2023-06-22T08:49:07;28.90;80.80
3408;DHT22;1717;50.240;8.406;2023-06-22T08:51:35;29.00;80.40
3408;DHT22;1717;50.240;8.406;2023-06-22T08:54:02;29.10;79.70
3408;DHT22;1717;50.240;8.406;2023-06-22T08:56:30;29.20;79.30
3408;DHT22;1717;50.240;8.406;2023-06-22T08:58:57;29.20;78.50
3408;DHT22;1717;50.240;8.406;2023-06-22T09:01:24;29.30;78.40
3408;DHT22;1717;50.240;8.406;2023-06-22T09:03:51;29.40;77.80
3408;DHT22;1717;50.240;8.406;2023-06-22T09:06:23;29.40;77.30
3408;DHT22;1717;50.240;8.406;2023-06-22T09:08:49;29.50;76.60
3408;DHT22;1717;50.240;8.406;2023-06-22T09:11:16;29.60;76.50
3408;DHT22;1717;50.240;8.406;2023-06-22T09:13:45;29.60;75.90
3408;DHT22;1717;50.240;8.406;2023-06-22T09:16:12;29.70;75.60
3408;DHT22;1717;50.240;8.406;2023-06-22T09:18:39;29.70;75.00
3408;DHT22;1717;50.240;8.406;2023-06-22T09:21:06;29.80;74.90
3408;DHT22;1717;50.240;8.406;2023-06-22T09:23:33;29.80;74.40
3408;DHT22;1717;50.240;8.406;2023-06-22T09:25:59;29.80;73.90
3408;DHT22;1717;50.240;8.406;2023-06-22T09:28:26;29.80;74.10
3408;DHT22;1717;50.240;8.406;2023-06-22T09:30:55;29.90;73.70
3408;DHT22;1717;50.240;8.406;2023-06-22T09:33:23;29.90;73.90
3408;DHT22;1717;50.240;8.406;2023-06-22T09:35:50;30.00;73.70
3408;DHT22;1717;50.240;8.406;2023-06-22T09:38:17;30.10;73.50
3408;DHT22;1717;50.240;8.406;2023-06-22T09:40:44;30.20;73.00
3408;DHT22;1717;50.240;8.406;2023-06-22T09:43:11;30.20;72.60
3408;DHT22;1717;50.240;8.406;2023-06-22T09:45:38;30.30;72.50
3408;DHT22;1717;50.240;8.406;2023-06-22T09:48:06;30.30;72.40
3408;DHT22;1717;50.240;8.406;2023-06-22T09:50:35;30.40;72.20
3408;DHT22;1717;50.240;8.406;2023-06-22T09:53:02;30.50;72.40
3408;DHT22;1717;50.240;8.406;2023-06-22T09:55:29;30.60;71.40
3408;DHT22;1717;50.240;8.406;2023-06-22T09:57:56;30.60;71.20
3408;DHT22;1717;50.240;8.406;2023-06-22T10:00:22;30.60;70.00
3408;DHT22;1717;50.240;8.406;2023-06-22T10:02:49;30.60;69.70
3408;DHT22;1717;50.240;8.406;2023-06-22T10:05:18;30.70;69.70
3408;DHT22;1717;50.240;8.406;2023-06-22T10:07:45;30.70;69.60
3408;DHT22;1717;50.240;8.406;2023-06-22T10:10:12;30.60;69.50
3408;DHT22;1717;50.240;8.406;2023-06-22T10:12:44;30.70;69.40
3408;DHT22;1717;50.240;8.406;2023-06-22T10:15:12;30.70;69.40
3408;DHT22;1717;50.240;8.406;2023-06-22T10:17:39;30.80;68.90
3408;DHT22;1717;50.240;8.406;2023-06-22T10:20:07;30.90;68.90
3408;DHT22;1717;50.240;8.406;2023-06-22T10:22:39;30.90;68.70
3408;DHT22;1717;50.240;8.406;2023-06-22T10:25:07;30.90;67.40
3408;DHT22;1717;50.240;8.406;2023-06-22T10:27:34;30.90;67.60
3408;DHT22;1717;50.240;8.406;2023-06-22T10:30:01;31.00;68.30
3408;DHT22;1717;50.240;8.406;2023-06-22T10:32:28;31.00;68.50
3408;DHT22;1717;50.240;8.406;2023-06-22T10:34:55;31.00;67.50
3408;DHT22;1717;50.240;8.406;2023-06-22T10:37:22;31.10;67.60
3408;DHT22;1717;50.240;8.406;2023-06-22T10:39:51;31.10;67.60
3408;DHT22;1717;50.240;8.406;2023-06-22T10:42:18;31.10;67.60
3408;DHT22;1717;50.240;8.406;2023-06-22T10:44:46;31.10;67.60
3408;DHT22;1717;50.240;8.406;2023-06-22T10:47:13;31.10;67.60
3408;DHT22;1717;50.240;8.406;2023-06-22T10:49:40;31.10;67.50
3408;DHT22;1717;50.240;8.406;2023-06-22T10:52:08;31.20;67.20
3408;DHT22;1717;50.240;8.406;2023-06-22T10:54:35;31.20;67.10
3408;DHT22;1717;50.240;8.406;2023-06-22T10:57:05;31.30;67.20
3408;DHT22;1717;50.240;8.406;2023-06-22T10:59:32;31.30;67.00
3408;DHT22;1717;50.240;8.406;2023-06-22T11:01:59;31.30;66.90
3408;DHT22;1717;50.240;8.406;2023-06-22T11:04:26;31.40;67.00
3408;DHT22;1717;50.240;8.406;2023-06-22T11:06:52;31.40;66.90
3408;DHT22;1717;50.240;8.406;2023-06-22T11:09:19;31.40;66.60
3408;DHT22;1717;50.240;8.406;2023-06-22T11:11:47;31.50;66.30
3408;DHT22;1717;50.240;8.406;2023-06-22T11:14:15;31.60;66.10
3408;DHT22;1717;50.240;8.406;2023-06-22T11:16:42;31.60;65.70
3408;DHT22;1717;50.240;8.406;2023-06-22T11:19:08;31.70;65.00
3408;DHT22;1717;50.240;8.406;2023-06-22T11:21:35;31.70;64.50
3408;DHT22;1717;50.240;8.406;2023-06-22T11:24:02;31.70;64.20
3408;DHT22;1717;50.240;8.406;2023-06-22T11:26:30;31.80;64.30
3408;DHT22;1717;50.240;8.406;2023-06-22T11:28:57;31.90;63.90
3408;DHT22;1717;50.240;8.406;2023-06-22T11:31:25;31.90;63.60
3408;DHT22;1717;50.240;8.406;2023-06-22T11:33:52;32.00;63.60
3408;DHT22;1717;50.240;8.406;2023-06-22T11:36:19;32.10;63.40
3408;DHT22;1717;50.240;8.406;2023-06-22T11:38:46;32.20;63.10
3408;DHT22;1717;50.240;8.406;2023-06-22T11:41:13;32.30;62.60
3408;DHT22;1717;50.240;8.406;2023-06-22T11:43:40;32.30;61.50
3408;DHT22;1717;50.240;8.406;2023-06-22T11:46:07;32.50;60.80
3408;DHT22;1717;50.240;8.406;2023-06-22T11:48:35;32.60;59.90
3408;DHT22;1717;50.240;8.406;2023-06-22T11:51:02;32.70;59.00
3408;DHT22;1717;50.240;8.406;2023-06-22T11:53:29;32.80;58.60
3408;DHT22;1717;50.240;8.406;2023-06-22T11:55:56;32.90;58.90
3408;DHT22;1717;50.240;8.406;2023-06-22T11:58:23;32.90;57.60
3408;DHT22;1717;50.240;8.406;2023-06-22T12:00:50;33.00;57.50
3408;DHT22;1717;50.240;8.406;2023-06-22T12:03:17;33.00;56.70
3408;DHT22;1717;50.240;8.406;2023-06-22T12:05:45;33.00;57.20
3408;DHT22;1717;50.240;8.406;2023-06-22T12:08:12;33.10;57.30
3408;DHT22;1717;50.240;8.406;2023-06-22T12:10:40;33.20;57.10
3408;DHT22;1717;50.240;8.406;2023-06-22T12:13:07;33.20;57.00
3408;DHT22;1717;50.240;8.406;2023-06-22T12:15:34;33.30;56.90
3408;DHT22;1717;50.240;8.406;2023-06-22T12:18:00;33.40;57.10
3408;DHT22;1717;50.240;8.406;2023-06-22T12:20:28;33.50;57.10
3408;DHT22;1717;50.240;8.406;2023-06-22T12:22:57;33.50;56.20
3408;DHT22;1717;50.240;8.406;2023-06-22T12:25:24;33.60;56.30
3408;DHT22;1717;50.240;8.406;2023-06-22T12:27:51;33.70;55.80
3408;DHT22;1717;50.240;8.406;2023-06-22T12:30:17;33.80;55.70
3408;DHT22;1717;50.240;8.406;2023-06-22T12:32:44;34.00;55.70
3408;DHT22;1717;50.240;8.406;2023-06-22T12:35:11;34.00;55.30
3408;DHT22;1717;50.240;8.406;2023-06-22T12:37:40;34.20;55.20
3408;DHT22;1717;50.240;8.406;2023-06-22T12:40:09;34.20;54.60
3408;DHT22;1717;50.240;8.406;2023-06-22T12:42:36;34.30;54.50
3408;DHT22;1717;50.240;8.406;2023-06-22T12:45:04;34.40;54.50
3408;DHT22;1717;50.240;8.406;2023-06-22T12:47:31;34.50;54.20
3408;DHT22;1717;50.240;8.406;2023-06-22T12:49:58;34.60;53.70
3408;DHT22;1717;50.240;8.406;2023-06-22T12:52:26;34.70;53.70
3408;DHT22;1717;50.240;8.406;2023-06-22T12:54:52;34.80;53.60
3408;DHT22;1717;50.240;8.406;2023-06-22T12:57:21;34.90;53.20
3408;DHT22;1717;50.240;8.406;2023-06-22T12:59:48;35.00;53.10
3408;DHT22;1717;50.240;8.406;2023-06-22T13:02:15;35.10;53.00
3408;DHT22;1717;50.240;8.406;2023-06-22T13:04:42;35.10;52.50
3408;DHT22;1717;50.240;8.406;2023-06-22T13:07:08;35.20;52.50
3408;DHT22;1717;50.240;8.406;2023-06-22T13:09:36;35.20;52.40
3408;DHT22;1717;50.240;8.406;2023-06-22T13:12:04;35.30;52.00
3408;DHT22;1717;50.240;8.406;2023-06-22T13:14:32;35.30;52.10
3408;DHT22;1717;50.240;8.406;2023-06-22T13:16:59;35.40;52.00
3408;DHT22;1717;50.240;8.406;2023-06-22T13:19:26;35.40;51.90
3408;DHT22;1717;50.240;8.406;2023-06-22T13:21:57;35.50;51.80
3408;DHT22;1717;50.240;8.406;2023-06-22T13:24:24;35.50;51.80
3408;DHT22;1717;50.240;8.406;2023-06-22T13:26:51;35.50;51.70
3408;DHT22;1717;50.240;8.406;2023-06-22T13:29:18;35.50;50.40
3408;DHT22;1717;50.240;8.406;2023-06-22T13:31:46;35.60;50.60
3408;DHT22;1717;50.240;8.406;2023-06-22T13:34:13;35.60;50.40
3408;DHT22;1717;50.240;8.406;2023-06-22T13:36:40;35.60;50.40
3408;DHT22;1717;50.240;8.406;2023-06-22T13:39:06;35.60;49.90
3408;DHT22;1717;50.240;8.406;2023-06-22T13:41:33;35.70;50.40
3408;DHT22;1717;50.240;8.406;2023-06-22T13:44:00;35.70;50.10
3408;DHT22;1717;50.240;8.406;2023-06-22T13:46:28;35.70;50.00
3408;DHT22;1717;50.240;8.406;2023-06-22T13:48:56;35.80;50.60
3408;DHT22;1717;50.240;8.406;2023-06-22T13:51:23;35.90;50.00
3408;DHT22;1717;50.240;8.406;2023-06-22T13:53:50;36.00;49.50
3408;DHT22;1717;50.240;8.406;2023-06-22T13:56:17;36.00;49.10
3408;DHT22;1717;50.240;8.406;2023-06-22T13:58:44;36.10;48.90
3408;DHT22;1717;50.240;8.406;2023-06-22T14:01:11;36.20;48.70
3408;DHT22;1717;50.240;8.406;2023-06-22T14:03:37;36.20;48.80
3408;DHT22;1717;50.240;8.406;2023-06-22T14:06:06;36.30;49.00
3408;DHT22;1717;50.240;8.406;2023-06-22T14:08:37;36.20;49.10
3408;DHT22;1717;50.240;8.406;2023-06-22T14:11:04;36.10;48.80
3408;DHT22;1717;50.240;8.406;2023-06-22T14:13:30;36.00;49.10
3408;DHT22;1717;50.240;8.406;2023-06-22T14:15:57;35.90;49.20
3408;DHT22;1717;50.240;8.406;2023-06-22T14:18:24;35.80;49.30
3408;DHT22;1717;50.240;8.406;2023-06-22T14:20:51;35.70;49.40
3408;DHT22;1717;50.240;8.406;2023-06-22T14:23:19;35.50;49.60
3408;DHT22;1717;50.240;8.406;2023-06-22T14:25:46;35.40;50.20
3408;DHT22;1717;50.240;8.406;2023-06-22T14:28:13;35.20;50.40
3408;DHT22;1717;50.240;8.406;2023-06-22T14:30:42;35.10;50.60
3408;DHT22;1717;50.240;8.406;2023-06-22T14:33:09;35.00;51.20
3408;DHT22;1717;50.240;8.406;2023-06-22T14:35:35;34.80;51.50
3408;DHT22;1717;50.240;8.406;2023-06-22T14:38:02;34.70;52.40
3408;DHT22;1717;50.240;8.406;2023-06-22T14:40:31;34.60;52.20
3408;DHT22;1717;50.240;8.406;2023-06-22T14:42:57;34.40;52.40
3408;DHT22;1717;50.240;8.406;2023-06-22T14:45:24;34.30;52.70
3408;DHT22;1717;50.240;8.406;2023-06-22T14:47:51;34.20;53.00
3408;DHT22;1717;50.240;8.406;2023-06-22T14:50:18;34.00;53.10
3408;DHT22;1717;50.240;8.406;2023-06-22T14:52:45;34.00;53.50
3408;DHT22;1717;50.240;8.406;2023-06-22T14:55:12;33.80;53.60
3408;DHT22;1717;50.240;8.406;2023-06-22T14:57:41;33.70;53.90
3408;DHT22;1717;50.240;8.406;2023-06-22T15:00:08;33.60;54.10
3408;DHT22;1717;50.240;8.406;2023-06-22T15:02:35;33.40;54.60
3408;DHT22;1717;50.240;8.406;2023-06-22T15:05:02;33.30;54.90
3408;DHT22;1717;50.240;8.406;2023-06-22T15:07:29;33.20;55.00
3408;DHT22;1717;50.240;8.406;2023-06-22T15:09:56;33.10;55.20
3408;DHT22;1717;50.240;8.406;2023-06-22T15:12:23;32.90;54.70
3408;DHT22;1717;50.240;8.406;2023-06-22T15:14:51;32.90;55.60
3408;DHT22;1717;50.240;8.406;2023-06-22T15:17:18;32.80;54.60
3408;DHT22;1717;50.240;8.406;2023-06-22T15:19:45;32.70;54.80
3408;DHT22;1717;50.240;8.406;2023-06-22T15:22:12;32.60;54.90
3408;DHT22;1717;50.240;8.406;2023-06-22T15:24:39;32.50;55.10
3408;DHT22;1717;50.240;8.406;2023-06-22T15:27:06;32.50;55.20
3408;DHT22;1717;50.240;8.406;2023-06-22T15:29:33;32.30;55.20
3408;DHT22;1717;50.240;8.406;2023-06-22T15:32:01;32.30;55.40
3408;DHT22;1717;50.240;8.406;2023-06-22T15:34:28;32.00;57.90
3408;DHT22;1717;50.240;8.406;2023-06-22T15:36:55;31.70;57.60
3408;DHT22;1717;50.240;8.406;2023-06-22T15:39:22;31.40;58.30
3408;DHT22;1717;50.240;8.406;2023-06-22T15:41:52;31.10;59.30
3408;DHT22;1717;50.240;8.406;2023-06-22T15:44:19;30.70;60.30
3408;DHT22;1717;50.240;8.406;2023-06-22T15:46:46;30.50;60.90
3408;DHT22;1717;50.240;8.406;2023-06-22T15:49:15;30.30;61.60
3408;DHT22;1717;50.240;8.406;2023-06-22T15:51:43;30.20;63.10
3408;DHT22;1717;50.240;8.406;2023-06-22T15:54:10;29.80;65.20
3408;DHT22;1717;50.240;8.406;2023-06-22T15:56:37;29.70;66.40
3408;DHT22;1717;50.240;8.406;2023-06-22T15:59:04;29.40;68.50
3408;DHT22;1717;50.240;8.406;2023-06-22T16:01:31;29.10;70.70
3408;DHT22;1717;50.240;8.406;2023-06-22T16:03:58;28.70;72.80